Time;durP1;ratioP1;P1;durP2;ratioP2;P2;SDS_P1;SDS_P2;PMS_P1;PMS_P2;Temp;Humidity;BMP_temperature;BMP_pressure;BME280_temperature;BME280_humidity;BME280_pressure;Samples;Min_cycle;Max_cycle;Signal;HPM_P1;HPM_P2
2023/04/23 00:04:17;;;;;;;5.90;4.37;;;17.10;77.50;;;;;;10941507;32;20018;-71
2023/04/23 00:10:20;;;;;;;4.20;3.03;;;17.00;77.80;;;;;;10942617;32;20361;-71
2023/04/23 00:16:42;;;;;;;8.77;5.50;;;16.90;77.90;;;;;;10937970;32;20050;-71
2023/04/23 00:22:44;;;;;;;11.38;6.50;;;16.90;77.50;;;;;;10942027;32;20373;-71
2023/04/23 00:28:45;;;;;;;5.90;4.65;;;16.90;77.90;;;;;;10936586;32;20026;-71
2023/04/23 00:34:48;;;;;;;7.75;5.43;;;16.90;77.80;;;;;;10943959;32;20020;-71
2023/04/23 00:40:50;;;;;;;6.97;5.18;;;16.90;77.40;;;;;;10948846;32;20085;-71
2023/04/23 00:46:53;;;;;;;7.00;5.35;;;16.80;77.80;;;;;;10949952;32;20023;-71
2023/04/23 00:52:55;;;;;;;6.60;4.57;;;16.80;77.60;;;;;;10948418;32;20368;-71
2023/04/23 00:58:57;;;;;;;5.97;4.45;;;16.70;77.70;;;;;;10933627;32;20061;-71
2023/04/23 01:05:02;;;;;;;8.48;5.20;;;16.70;77.50;;;;;;10933152;32;20097;-71
2023/04/23 01:11:05;;;;;;;7.75;4.35;;;16.60;77.50;;;;;;10949055;32;20011;-71
2023/04/23 01:17:10;;;;;;;6.75;4.68;;;16.60;77.30;;;;;;10946972;32;20015;-71
2023/04/23 01:23:15;;;;;;;7.57;5.47;;;16.60;77.40;;;;;;10932637;32;20035;-71
2023/04/23 01:29:17;;;;;;;9.00;6.90;;;16.50;77.80;;;;;;10946545;32;20035;-71
2023/04/23 01:35:19;;;;;;;7.68;6.15;;;16.50;77.70;;;;;;10945395;32;20318;-71
2023/04/23 01:41:21;;;;;;;5.15;3.75;;;16.50;78.00;;;;;;10932201;32;20057;-72
2023/04/23 01:47:24;;;;;;;9.40;6.60;;;16.40;78.00;;;;;;10945550;32;20019;-71
2023/04/23 01:53:26;;;;;;;6.47;4.28;;;16.30;78.10;;;;;;10944350;32;20031;-71
2023/04/23 01:59:28;;;;;;;7.43;4.53;;;16.30;77.90;;;;;;10945503;32;20049;-71
2023/04/23 02:05:34;;;;;;;14.48;6.18;;;16.20;78.00;;;;;;10930911;32;20101;-72
2023/04/23 02:11:36;;;;;;;6.78;3.97;;;16.20;78.10;;;;;;10944572;32;20019;-71
2023/04/23 02:17:38;;;;;;;8.30;6.20;;;16.10;78.10;;;;;;10940769;32;20031;-71
2023/04/23 02:23:40;;;;;;;8.60;6.10;;;16.10;78.10;;;;;;10944629;32;20054;-72
2023/04/23 02:29:42;;;;;;;6.43;4.47;;;16.20;78.10;;;;;;10931766;32;20094;-71
2023/04/23 02:35:44;;;;;;;7.30;5.18;;;16.20;78.50;;;;;;10944372;32;20019;-71
2023/04/23 02:41:47;;;;;;;7.07;4.22;;;16.10;79.00;;;;;;10943692;32;20046;-71
2023/04/23 02:47:48;;;;;;;7.95;6.12;;;16.10;78.80;;;;;;10930086;32;20026;-71
2023/04/23 02:53:50;;;;;;;7.55;5.07;;;16.00;78.60;;;;;;10943208;32;20050;-71
2023/04/23 02:59:53;;;;;;;9.88;4.97;;;16.00;78.40;;;;;;10938256;32;20023;-72
2023/04/23 03:05:56;;;;;;;5.87;4.18;;;15.90;78.40;;;;;;10928851;32;20039;-71
2023/04/23 03:11:58;;;;;;;12.90;7.70;;;15.90;78.30;;;;;;10929217;32;20320;-71
2023/04/23 03:18:00;;;;;;;6.05;4.22;;;15.80;78.40;;;;;;10938246;32;20063;-71
2023/04/23 03:24:02;;;;;;;9.43;7.65;;;15.80;78.30;;;;;;10942292;32;20073;-71
2023/04/23 03:30:06;;;;;;;6.90;4.25;;;15.70;78.50;;;;;;10942181;32;20353;-71
2023/04/23 03:36:08;;;;;;;8.30;6.03;;;15.70;78.40;;;;;;10941795;32;20049;-71
2023/04/23 03:42:10;;;;;;;8.52;5.97;;;15.80;78.20;;;;;;10941713;32;20388;-71
2023/04/23 03:48:13;;;;;;;8.32;5.60;;;15.80;78.00;;;;;;10928236;32;20015;-71
2023/04/23 03:54:15;;;;;;;9.48;5.30;;;15.80;78.10;;;;;;10941344;32;20444;-71
2023/04/23 04:00:17;;;;;;;6.40;4.60;;;15.70;78.30;;;;;;10928455;32;20431;-71
2023/04/23 04:06:19;;;;;;;8.27;5.37;;;15.60;78.40;;;;;;10941128;32;20027;-71
2023/04/23 04:19:42;;;;;;;7.53;5.00;;;15.60;78.50;;;;;;10760385;33;20051;-71
2023/04/23 04:25:44;;;;;;;11.98;9.70;;;15.50;78.60;;;;;;10759958;33;20043;-71
2023/04/23 04:31:47;;;;;;;9.35;6.62;;;15.60;78.40;;;;;;10796478;33;20016;-71
2023/04/23 04:37:52;;;;;;;12.48;9.98;;;15.60;78.40;;;;;;10796177;33;20016;-71
2023/04/23 04:43:54;;;;;;;10.40;8.48;;;15.60;78.50;;;;;;10795150;33;20037;-71
2023/04/23 04:49:57;;;;;;;8.90;6.87;;;15.60;78.70;;;;;;10795830;33;20055;-71
2023/04/23 04:55:59;;;;;;;10.73;7.65;;;15.60;78.70;;;;;;10908455;32;20072;-71
2023/04/23 05:02:01;;;;;;;12.75;9.10;;;15.60;78.80;;;;;;10948605;32;20081;-71
2023/04/23 05:08:03;;;;;;;9.98;4.53;;;15.50;78.80;;;;;;10947141;32;20019;-71
2023/04/23 05:14:05;;;;;;;10.32;7.55;;;15.50;78.80;;;;;;10947986;32;20045;-71
2023/04/23 05:20:11;;;;;;;11.40;6.90;;;15.50;78.90;;;;;;10947000;32;20045;-71
2023/04/23 05:26:13;;;;;;;10.13;7.28;;;15.60;78.90;;;;;;10946941;32;20053;-72
2023/04/23 05:32:15;;;;;;;10.82;8.27;;;15.70;78.90;;;;;;10947516;32;20020;-72
2023/04/23 05:38:18;;;;;;;18.50;10.48;;;15.70;79.10;;;;;;10947913;32;20041;-72
2023/04/23 05:44:21;;;;;;;12.57;9.68;;;15.90;79.00;;;;;;10946371;32;20037;-72
2023/04/23 05:50:26;;;;;;;12.30;8.90;;;16.00;79.10;;;;;;10946658;32;20049;-71
2023/04/23 05:56:28;;;;;;;13.00;10.30;;;16.00;79.50;;;;;;10946646;32;20423;-71
2023/04/23 06:02:32;;;;;;;13.40;9.38;;;16.00;79.60;;;;;;10946311;32;20053;-71
2023/04/23 06:08:35;;;;;;;12.25;5.80;;;16.10;79.40;;;;;;10945686;32;20011;-72
2023/04/23 06:14:38;;;;;;;10.10;6.15;;;16.20;79.40;;;;;;10945475;32;20015;-72
2023/04/23 06:20:41;;;;;;;14.38;8.45;;;16.30;79.10;;;;;;10945117;32;20396;-74
2023/04/23 06:26:43;;;;;;;10.27;6.60;;;16.40;79.20;;;;;;10931911;32;20049;-74
2023/04/23 06:32:46;;;;;;;12.15;10.13;;;16.50;79.10;;;;;;10944029;32;20014;-74
2023/04/23 06:38:48;;;;;;;12.35;7.40;;;16.50;79.40;;;;;;10945013;32;20019;-74
2023/04/23 06:45:17;;;;;;;12.37;8.40;;;16.40;79.70;;;;;;10944222;32;20023;-74
2023/04/23 06:51:20;;;;;;;11.30;8.68;;;16.40;79.60;;;;;;10939638;32;20427;-74
2023/04/23 06:57:25;;;;;;;13.52;11.23;;;16.50;79.70;;;;;;10943812;32;20037;-74
2023/04/23 07:03:32;;;;;;;16.12;12.37;;;16.60;79.60;;;;;;10944050;32;20054;-74
2023/04/23 07:09:34;;;;;;;18.45;16.55;;;16.80;79.70;;;;;;10943294;32;20019;-74
2023/04/23 07:15:58;;;;;;;25.40;17.98;;;16.90;79.60;;;;;;10943116;32;20049;-74
2023/04/23 07:22:00;;;;;;;14.23;12.50;;;17.10;79.50;;;;;;10942815;32;20045;-74
2023/04/23 07:28:02;;;;;;;18.67;11.65;;;17.20;79.40;;;;;;10943276;32;20081;-75
2023/04/23 07:34:05;;;;;;;22.48;19.45;;;17.30;79.10;;;;;;10942097;32;20034;-74
2023/04/23 07:40:08;;;;;;;18.12;14.50;;;17.40;79.00;;;;;;10941904;32;20341;-73
2023/04/23 07:46:10;;;;;;;13.48;10.38;;;17.50;78.80;;;;;;10941702;32;20018;-74
2023/04/23 07:52:12;;;;;;;18.55;11.27;;;17.60;78.70;;;;;;10918436;27;20031;-74
2023/04/23 07:58:14;;;;;;;14.02;10.73;;;17.80;77.80;;;;;;10904242;32;20031;-74
2023/04/23 08:04:17;;;;;;;18.62;16.73;;;17.90;77.50;;;;;;10890324;32;20382;-73
2023/04/23 08:10:19;;;;;;;14.43;11.18;;;18.00;77.40;;;;;;10904401;32;20023;-74
2023/04/23 08:16:21;;;;;;;14.85;9.20;;;18.00;77.40;;;;;;10903618;32;20015;-74
2023/04/23 08:22:24;;;;;;;17.05;11.75;;;18.10;77.00;;;;;;10903385;32;20398;-74
2023/04/23 08:28:26;;;;;;;18.95;15.38;;;18.20;76.70;;;;;;10901723;32;20046;-74
2023/04/23 08:34:28;;;;;;;14.25;9.90;;;18.30;76.80;;;;;;10903969;32;20311;-73
2023/04/23 08:40:32;;;;;;;16.15;12.15;;;18.30;76.40;;;;;;10903383;32;20046;-73
2023/04/23 08:46:38;;;;;;;15.77;12.95;;;18.50;76.10;;;;;;10888734;32;20394;-74
2023/04/23 08:52:43;;;;;;;11.77;9.13;;;18.80;75.90;;;;;;10903109;32;20023;-74
2023/04/23 08:58:47;;;;;;;7.35;5.78;;;18.90;75.30;;;;;;10896033;32;20070;-74
2023/04/23 09:04:49;;;;;;;9.70;6.07;;;19.00;75.00;;;;;;10909990;32;20027;-74
2023/04/23 09:10:54;;;;;;;9.40;6.37;;;19.10;74.60;;;;;;10909552;32;20081;-74
2023/04/23 09:16:56;;;;;;;5.20;4.05;;;19.20;73.00;;;;;;10910147;32;20019;-74
2023/04/23 09:22:59;;;;;;;6.50;4.10;;;19.20;72.50;;;;;;10909971;32;20031;-74
2023/04/23 09:29:01;;;;;;;7.85;5.30;;;19.30;72.20;;;;;;10908468;32;20051;-73
2023/04/23 09:35:06;;;;;;;6.78;5.35;;;19.30;71.00;;;;;;10909689;32;20416;-73
2023/04/23 09:41:28;;;;;;;7.57;5.25;;;19.60;70.30;;;;;;10892713;32;20419;-74
2023/04/23 09:47:38;;;;;;;5.68;3.25;;;19.60;69.60;;;;;;10908703;32;20023;-72
2023/04/23 09:53:43;;;;;;;7.53;3.90;;;19.60;68.60;;;;;;10908042;32;20047;-72
2023/04/23 09:59:45;;;;;;;8.40;6.12;;;19.70;68.10;;;;;;10909234;32;20019;-72
2023/04/23 10:05:47;;;;;;;12.52;9.18;;;19.90;67.10;;;;;;10908145;32;20050;-72
2023/04/23 10:11:55;;;;;;;13.00;9.05;;;20.00;66.30;;;;;;10908399;32;20024;-72
2023/04/23 10:17:58;;;;;;;7.20;4.78;;;20.20;65.80;;;;;;10894331;32;20341;-73
2023/04/23 10:24:01;;;;;;;5.00;3.30;;;20.30;64.70;;;;;;10907988;32;20073;-72
2023/04/23 10:30:08;;;;;;;4.95;3.10;;;20.50;64.80;;;;;;10907967;32;20019;-73
2023/04/23 10:36:10;;;;;;;4.90;4.03;;;20.80;63.10;;;;;;10907766;32;20337;-73
2023/04/23 10:42:13;;;;;;;3.78;2.47;;;21.10;61.70;;;;;;10903350;32;20027;-72
2023/04/23 10:48:16;;;;;;;4.25;2.70;;;21.30;61.00;;;;;;10906548;32;20023;-72
2023/04/23 10:54:19;;;;;;;5.22;2.50;;;21.40;59.50;;;;;;10906101;32;20019;-72
2023/04/23 11:00:21;;;;;;;5.35;3.50;;;21.60;59.70;;;;;;10906828;32;20054;-72
2023/04/23 11:06:49;;;;;;;4.40;2.85;;;21.80;60.80;;;;;;10902823;32;20065;-71
2023/04/23 11:12:51;;;;;;;4.97;2.67;;;21.80;58.90;;;;;;10904745;32;20070;-72
2023/04/23 11:19:02;;;;;;;4.78;3.28;;;22.20;57.20;;;;;;10904966;32;20019;-74
2023/04/23 11:25:10;;;;;;;6.25;3.25;;;22.50;56.60;;;;;;10905416;32;20352;-73
2023/04/23 11:31:14;;;;;;;4.18;2.58;;;22.60;56.10;;;;;;10905895;32;20015;-73
2023/04/23 11:37:17;;;;;;;3.95;2.72;;;22.90;56.00;;;;;;10905683;32;20058;-73
2023/04/23 11:43:20;;;;;;;3.45;2.28;;;23.20;56.20;;;;;;10892061;32;20050;-73
2023/04/23 11:49:22;;;;;;;2.87;2.12;;;23.20;54.80;;;;;;10905351;32;20034;-74
2023/04/23 11:55:25;;;;;;;4.60;2.72;;;23.40;53.20;;;;;;10904169;32;20019;-74
2023/04/23 12:02:11;;;;;;;3.78;2.50;;;23.30;54.00;;;;;;10903315;32;20027;-73
2023/04/23 12:08:20;;;;;;;5.25;3.40;;;23.50;53.70;;;;;;10903075;32;20059;-73
2023/04/23 12:14:29;;;;;;;3.37;2.28;;;23.70;53.00;;;;;;10889011;32;20022;-72
2023/04/23 12:20:31;;;;;;;5.00;2.17;;;23.60;52.80;;;;;;10902382;32;20434;-73
2023/04/23 12:26:36;;;;;;;4.95;3.37;;;23.40;54.20;;;;;;10901868;32;20027;-73
2023/04/23 12:32:40;;;;;;;4.00;2.58;;;23.30;53.10;;;;;;10909725;32;20381;-72
2023/04/23 12:38:42;;;;;;;2.83;2.15;;;23.30;52.90;;;;;;10911355;32;20059;-73
2023/04/23 12:44:44;;;;;;;5.82;3.45;;;23.20;51.10;;;;;;10909859;32;20310;-72
2023/04/23 12:50:47;;;;;;;3.87;2.70;;;23.20;53.80;;;;;;10897793;32;20337;-73
2023/04/23 12:56:49;;;;;;;5.87;4.12;;;23.10;52.60;;;;;;10909545;32;20011;-74
2023/04/23 13:02:51;;;;;;;7.57;4.75;;;23.20;52.50;;;;;;10896322;32;20444;-73
2023/04/23 13:08:54;;;;;;;4.85;3.08;;;23.30;52.60;;;;;;10910589;32;20019;-72
2023/04/23 13:14:57;;;;;;;4.50;3.40;;;23.10;56.20;;;;;;10906459;32;20020;-73
2023/04/23 13:20:59;;;;;;;4.20;2.35;;;23.10;54.70;;;;;;10897409;32;20302;-72
2023/04/23 13:27:01;;;;;;;4.32;3.00;;;23.30;54.00;;;;;;10910035;32;20330;-73
2023/04/23 13:33:03;;;;;;;4.37;2.92;;;23.30;53.90;;;;;;10910573;32;20313;-73
2023/04/23 13:39:07;;;;;;;5.32;4.05;;;23.30;54.60;;;;;;10909865;32;20042;-73
2023/04/23 13:45:10;;;;;;;4.50;3.40;;;23.40;57.40;;;;;;10908781;32;20333;-72
2023/04/23 13:51:12;;;;;;;8.18;5.35;;;23.20;56.10;;;;;;10895065;32;20047;-73
2023/04/23 13:57:14;;;;;;;9.15;5.57;;;23.20;55.80;;;;;;10892266;32;20022;-72
2023/04/23 14:03:16;;;;;;;6.43;5.05;;;23.30;55.30;;;;;;10907812;32;20028;-72
2023/04/23 14:09:20;;;;;;;6.35;3.17;;;23.50;54.50;;;;;;10909164;32;20436;-72
2023/04/23 14:15:23;;;;;;;5.75;4.25;;;23.40;55.10;;;;;;10905540;32;20065;-73
2023/04/23 14:21:25;;;;;;;6.95;4.43;;;23.20;56.00;;;;;;10907509;32;20103;-72
2023/04/23 14:27:27;;;;;;;7.07;4.50;;;23.10;56.10;;;;;;10908504;32;20015;-72
2023/04/23 14:33:29;;;;;;;5.47;3.70;;;23.30;58.20;;;;;;10907617;32;20019;-72
2023/04/23 14:39:33;;;;;;;4.40;3.08;;;23.60;56.40;;;;;;10906989;32;20027;-72
2023/04/23 14:45:35;;;;;;;6.20;3.37;;;23.70;56.00;;;;;;10907269;32;20019;-72
2023/04/23 14:51:37;;;;;;;6.15;3.42;;;23.80;56.00;;;;;;10905489;32;20028;-72
2023/04/23 14:57:39;;;;;;;6.90;3.72;;;23.90;55.80;;;;;;10906353;32;20042;-72
2023/04/23 15:03:43;;;;;;;4.70;3.33;;;24.00;55.20;;;;;;10901540;32;20478;-72
2023/04/23 15:09:45;;;;;;;5.45;3.70;;;24.00;55.40;;;;;;10903705;32;20041;-72
2023/04/23 15:15:48;;;;;;;8.20;5.55;;;24.30;54.90;;;;;;10906262;32;20042;-72
2023/04/23 15:21:50;;;;;;;7.93;4.80;;;23.90;58.60;;;;;;10902161;32;20015;-72
2023/04/23 15:27:56;;;;;;;7.03;3.75;;;23.80;57.90;;;;;;10905311;32;20050;-72
2023/04/23 15:33:58;;;;;;;4.80;2.85;;;24.10;57.40;;;;;;10903324;32;20015;-73
2023/04/23 15:40:00;;;;;;;10.02;7.82;;;24.30;56.10;;;;;;10905553;32;20019;-72
2023/04/23 15:46:02;;;;;;;7.70;4.15;;;24.10;56.20;;;;;;10901907;32;20094;-73
2023/04/23 15:52:04;;;;;;;6.85;4.97;;;23.50;57.20;;;;;;10907452;27;20027;-73
2023/04/23 15:58:07;;;;;;;6.28;5.20;;;23.20;57.90;;;;;;10904454;32;20023;-72
2023/04/23 16:04:09;;;;;;;10.35;8.13;;;22.90;58.50;;;;;;10904016;32;20019;-73
2023/04/23 16:10:11;;;;;;;5.62;3.55;;;22.80;59.20;;;;;;10904783;32;20019;-73
2023/04/23 16:16:13;;;;;;;7.40;4.90;;;22.70;59.60;;;;;;10900601;32;20023;-73
2023/04/23 16:22:16;;;;;;;7.50;5.53;;;22.80;59.20;;;;;;10889738;32;20046;-73
2023/04/23 16:28:18;;;;;;;7.15;4.80;;;23.10;58.90;;;;;;10899375;32;20035;-73
2023/04/23 16:34:20;;;;;;;6.95;4.47;;;23.50;58.60;;;;;;10896533;32;20020;-73
2023/04/23 16:40:22;;;;;;;8.82;5.53;;;23.60;58.50;;;;;;10895481;32;20050;-72
2023/04/23 16:46:28;;;;;;;8.73;5.10;;;23.30;59.00;;;;;;10899580;32;20053;-73
2023/04/23 16:52:30;;;;;;;7.25;5.05;;;22.90;59.80;;;;;;10889331;32;20028;-73
2023/04/23 16:58:34;;;;;;;8.52;5.95;;;22.80;60.50;;;;;;10890720;32;20055;-73
2023/04/23 17:04:36;;;;;;;9.98;8.15;;;22.70;60.80;;;;;;10902305;32;20023;-74
2023/04/23 17:10:38;;;;;;;10.82;6.45;;;22.40;62.80;;;;;;10880822;32;20047;-73
2023/04/23 17:16:41;;;;;;;8.80;5.97;;;21.90;64.30;;;;;;10889339;32;20028;-73
2023/04/23 17:22:43;;;;;;;13.55;7.22;;;21.80;64.50;;;;;;10910028;32;20027;-73
2023/04/23 17:28:45;;;;;;;8.90;5.95;;;21.70;64.60;;;;;;10895306;32;20348;-73
2023/04/23 17:34:47;;;;;;;7.05;4.25;;;21.50;65.40;;;;;;10909009;32;20019;-73
2023/04/23 17:40:53;;;;;;;8.80;3.65;;;21.40;65.30;;;;;;10894788;32;20027;-73
2023/04/23 17:46:55;;;;;;;7.93;4.87;;;21.40;65.10;;;;;;10909422;32;20322;-73
2023/04/23 17:52:57;;;;;;;10.48;8.02;;;21.30;65.30;;;;;;10908805;32;20019;-72
2023/04/23 17:59:00;;;;;;;11.80;6.90;;;21.20;65.90;;;;;;10908455;32;20045;-73
2023/04/23 18:05:02;;;;;;;7.30;5.60;;;20.90;67.20;;;;;;10893773;32;20078;-73
2023/04/23 18:11:06;;;;;;;9.55;6.40;;;20.80;67.70;;;;;;10907904;32;20020;-72
2023/04/23 18:17:08;;;;;;;11.23;7.72;;;20.80;68.40;;;;;;10908216;32;20015;-71
2023/04/23 18:23:11;;;;;;;13.18;5.78;;;20.60;69.30;;;;;;10907465;32;20038;-72
2023/04/23 18:29:14;;;;;;;9.30;5.50;;;20.60;69.80;;;;;;10880467;32;20393;-72
2023/04/23 18:35:17;;;;;;;9.63;5.00;;;20.60;69.80;;;;;;10907866;32;20042;-72
2023/04/23 18:41:19;;;;;;;11.27;6.37;;;20.60;69.70;;;;;;10907152;32;20019;-73
2023/04/23 18:47:28;;;;;;;10.18;6.30;;;20.60;69.90;;;;;;10903499;32;20035;-72
2023/04/23 18:53:30;;;;;;;;;;;20.50;70.00;;;;;;10906528;32;20020;-72
2023/04/23 18:59:34;;;;;;;8.82;7.07;;;20.50;70.00;;;;;;10904502;32;19976;-73
2023/04/23 19:05:38;;;;;;;12.07;8.02;;;20.30;70.80;;;;;;10879717;32;20065;-73
2023/04/23 19:11:40;;;;;;;9.40;7.15;;;20.30;71.60;;;;;;10905974;32;20049;-72
2023/04/23 19:17:42;;;;;;;10.27;7.68;;;20.20;72.00;;;;;;10906519;32;20484;-74
2023/04/23 19:23:45;;;;;;;12.80;7.78;;;20.20;72.20;;;;;;10891467;32;20039;-73
2023/04/23 19:29:48;;;;;;;12.07;9.65;;;20.20;72.40;;;;;;10906024;32;20401;-73
2023/04/23 19:35:51;;;;;;;13.77;9.75;;;20.00;72.70;;;;;;10901974;32;20031;-73
2023/04/23 19:41:53;;;;;;;16.02;9.77;;;20.00;73.30;;;;;;10900619;32;20447;-74
2023/04/23 19:47:56;;;;;;;15.32;8.35;;;19.90;73.70;;;;;;10901109;32;20358;-74
2023/04/23 19:53:58;;;;;;;10.15;7.00;;;19.80;74.00;;;;;;10887134;32;20044;-73
2023/04/23 20:00:00;;;;;;;14.68;9.32;;;19.80;73.90;;;;;;10905225;32;20019;-74
2023/04/23 20:06:02;;;;;;;11.93;8.75;;;19.90;74.00;;;;;;10901436;32;20093;-74
2023/04/23 20:12:05;;;;;;;10.73;6.85;;;19.80;74.30;;;;;;10904457;32;20385;-73
2023/04/23 20:18:07;;;;;;;6.35;4.93;;;19.70;74.70;;;;;;10904280;32;20023;-74
2023/04/23 20:24:10;;;;;;;7.32;5.18;;;19.80;74.70;;;;;;10904682;32;20019;-73
2023/04/23 20:30:13;;;;;;;11.02;7.93;;;19.80;74.70;;;;;;10905323;32;20055;-73
2023/04/23 20:36:15;;;;;;;12.63;8.32;;;19.80;74.90;;;;;;10904607;32;20027;-73
2023/04/23 20:42:17;;;;;;;10.65;7.87;;;19.70;75.30;;;;;;10903944;32;20054;-73
2023/04/23 20:48:20;;;;;;;8.20;6.55;;;19.60;75.70;;;;;;10902913;32;20049;-74
2023/04/23 20:54:22;;;;;;;9.45;5.30;;;19.60;75.50;;;;;;10895320;32;20043;-74
2023/04/23 21:00:25;;;;;;;4.85;3.92;;;19.50;75.80;;;;;;10911974;32;20023;-74
2023/04/23 21:06:29;;;;;;;13.62;5.90;;;19.50;76.10;;;;;;10911595;32;20397;-74
2023/04/23 21:12:32;;;;;;;9.30;6.50;;;19.50;76.40;;;;;;10896310;32;20030;-73
2023/04/23 21:18:34;;;;;;;15.18;7.00;;;19.40;76.60;;;;;;10910669;32;20023;-74
2023/04/23 21:24:36;;;;;;;9.75;6.75;;;19.30;76.80;;;;;;10879808;32;20074;-75
2023/04/23 21:30:41;;;;;;;10.02;5.97;;;19.30;77.00;;;;;;10895453;32;20065;-74
2023/04/23 21:36:44;;;;;;;15.93;9.25;;;19.20;76.90;;;;;;10909624;32;20022;-74
2023/04/23 21:43:14;;;;;;;9.52;7.68;;;19.20;77.10;;;;;;10909969;32;20052;-74
2023/04/23 21:49:17;;;;;;;11.32;9.93;;;19.10;77.30;;;;;;10882148;32;20058;-74
2023/04/23 21:55:19;;;;;;;9.52;6.37;;;19.00;77.60;;;;;;10908310;32;20020;-74
2023/04/23 22:01:22;;;;;;;6.68;4.03;;;18.90;77.80;;;;;;10908184;32;20344;-74
2023/04/23 22:07:25;;;;;;;14.45;7.78;;;19.00;77.90;;;;;;10908867;32;20031;-73
2023/04/23 22:13:27;;;;;;;10.95;7.87;;;19.00;78.00;;;;;;10908793;32;20016;-74
2023/04/23 22:19:32;;;;;;;12.50;8.10;;;18.90;78.10;;;;;;10908136;32;20012;-74
2023/04/23 22:25:34;;;;;;;7.93;6.53;;;18.80;78.50;;;;;;10908206;32;20023;-75
2023/04/23 22:31:36;;;;;;;8.77;6.60;;;18.70;78.60;;;;;;10907563;32;20024;-74
2023/04/23 22:37:38;;;;;;;10.57;6.30;;;18.80;78.50;;;;;;10907946;32;20016;-74
2023/04/23 22:43:40;;;;;;;9.05;7.15;;;18.70;78.40;;;;;;10907046;32;20046;-74
2023/04/23 22:49:48;;;;;;;6.07;4.03;;;18.70;78.80;;;;;;10906305;32;20114;-75
2023/04/23 22:55:51;;;;;;;3.90;2.78;;;18.70;78.70;;;;;;10906131;32;20049;-74
2023/04/23 23:01:53;;;;;;;11.05;5.32;;;18.70;78.70;;;;;;10906536;32;20027;-74
2023/04/23 23:07:55;;;;;;;9.65;5.35;;;18.70;78.90;;;;;;10906175;32;20070;-75
2023/04/23 23:13:57;;;;;;;9.23;5.40;;;18.60;78.90;;;;;;10906040;32;20348;-74
2023/04/23 23:19:59;;;;;;;7.82;4.50;;;18.60;78.90;;;;;;10905318;32;20023;-75
2023/04/23 23:26:06;;;;;;;6.90;4.70;;;18.50;78.90;;;;;;10904500;32;20027;-74
2023/04/23 23:32:08;;;;;;;5.87;3.97;;;18.50;78.90;;;;;;10902208;32;20415;-75
2023/04/23 23:38:10;;;;;;;6.00;4.15;;;18.50;79.00;;;;;;10904725;32;20047;-74
2023/04/23 23:51:38;;;;;;;4.82;2.83;;;18.50;79.00;;;;;;10394204;32;16796270;-74
2023/04/23 23:57:40;;;;;;;7.30;4.25;;;18.40;79.10;;;;;;10905372;32;20424;-74
